AUA339 ESGG-ESSA
Flight info
| Callsign | AUA339 |
|---|---|
| Flight time | 0h 44m |
| Altitude | 25000 |
| Route | LABAN N873 ARS T317 ELTOK |
| Aircraft | A339/H-SADE1E2E3GHIJ3J5M1P2RWXY/LB2D1 |
Departure
| Time | 2026-05-04 19:07 |
|---|---|
| Airport | Göteborg Landvetter Airport (ESGG) |
Arrival
| Time | 2026-05-04 19:52 |
|---|---|
| Airport | Stockholm-Arlanda Airport (ESSA) |
| Time | Latitude | Longitude | Altitude | Speed | Heading |
|---|---|---|---|---|---|
| 2026-05-04 18:38 | 57.67173 | 12.29648 | 542 ft | 0 kts | 116° |
| 2026-05-04 18:54 | 57.67175 | 12.29642 | 536 ft | 1 kts | 115° |
| 2026-05-04 18:55 | 57.67178 | 12.29629 | 536 ft | 1 kts | 110° |
| 2026-05-04 18:55 | 57.67183 | 12.29603 | 540 ft | 1 kts | 124° |
| 2026-05-04 18:55 | 57.67187 | 12.29591 | 539 ft | 1 kts | 124° |
| 2026-05-04 18:56 | 57.67191 | 12.29578 | 542 ft | 1 kts | 139° |
| 2026-05-04 18:56 | 57.67196 | 12.29566 | 544 ft | 1 kts | 161° |
| 2026-05-04 18:56 | 57.67203 | 12.29558 | 543 ft | 1 kts | 188° |
| 2026-05-04 18:56 | 57.67207 | 12.29556 | 548 ft | 0 kts | 201° |
| 2026-05-04 18:59 | 57.67204 | 12.29554 | 544 ft | 0 kts | 201° |
| 2026-05-04 19:00 | 57.67200 | 12.29548 | 544 ft | 2 kts | 210° |
| 2026-05-04 19:00 | 57.67194 | 12.29509 | 536 ft | 4 kts | 255° |
| 2026-05-04 19:00 | 57.67203 | 12.29465 | 536 ft | 4 kts | 294° |
| 2026-05-04 19:00 | 57.67222 | 12.29427 | 536 ft | 4 kts | 316° |
| 2026-05-04 19:01 | 57.67252 | 12.29402 | 537 ft | 5 kts | 339° |
| 2026-05-04 19:01 | 57.67287 | 12.29409 | 537 ft | 5 kts | 17° |
| 2026-05-04 19:01 | 57.67322 | 12.29440 | 537 ft | 6 kts | 25° |
| 2026-05-04 19:01 | 57.67364 | 12.29474 | 538 ft | 7 kts | 21° |
| 2026-05-04 19:02 | 57.67406 | 12.29460 | 538 ft | 5 kts | 323° |
| 2026-05-04 19:02 | 57.67408 | 12.29455 | 541 ft | 0 kts | 317° |
| 2026-05-04 19:05 | 57.67410 | 12.29450 | 538 ft | 2 kts | 316° |
| 2026-05-04 19:05 | 57.67438 | 12.29369 | 538 ft | 14 kts | 296° |
| 2026-05-04 19:06 | 57.67452 | 12.29135 | 536 ft | 23 kts | 264° |
| 2026-05-04 19:06 | 57.67403 | 12.29000 | 536 ft | 8 kts | 210° |
| 2026-05-04 19:06 | 57.67381 | 12.28978 | 536 ft | 9 kts | 208° |
| 2026-05-04 19:06 | 57.67100 | 12.28703 | 536 ft | 89 kts | 207° |
| 2026-05-04 19:07 | 57.66310 | 12.27980 | 532 ft | 160 kts | 208° |
| 2026-05-04 19:07 | 57.65252 | 12.27036 | 1234 ft | 167 kts | 209° |
| 2026-05-04 19:07 | 57.64200 | 12.26139 | 2296 ft | 165 kts | 213° |
| 2026-05-04 19:07 | 57.63123 | 12.25150 | 3046 ft | 181 kts | 214° |
| 2026-05-04 19:08 | 57.61946 | 12.23997 | 3637 ft | 201 kts | 214° |
| 2026-05-04 19:08 | 57.60627 | 12.22897 | 4358 ft | 215 kts | 201° |
| 2026-05-04 19:08 | 57.59082 | 12.22802 | 5119 ft | 232 kts | 173° |
| 2026-05-04 19:08 | 57.57636 | 12.24162 | 5956 ft | 245 kts | 143° |
| 2026-05-04 19:09 | 57.56614 | 12.26757 | 6697 ft | 254 kts | 119° |
| 2026-05-04 19:09 | 57.56082 | 12.29940 | 7353 ft | 262 kts | 93° |
| 2026-05-04 19:09 | 57.56355 | 12.33279 | 8054 ft | 263 kts | 67° |
| 2026-05-04 19:09 | 57.57118 | 12.36482 | 8401 ft | 280 kts | 59° |
| 2026-05-04 19:10 | 57.58037 | 12.39824 | 8630 ft | 298 kts | 59° |
| 2026-05-04 19:10 | 57.58948 | 12.43376 | 8975 ft | 313 kts | 62° |
| 2026-05-04 19:10 | 57.59822 | 12.47170 | 9515 ft | 322 kts | 64° |
| 2026-05-04 19:10 | 57.60662 | 12.51056 | 10156 ft | 328 kts | 65° |
| 2026-05-04 19:11 | 57.61540 | 12.55128 | 10368 ft | 347 kts | 62° |
| 2026-05-04 19:11 | 57.62866 | 12.58954 | 10566 ft | 358 kts | 43° |
| 2026-05-04 19:11 | 57.64761 | 12.61881 | 10919 ft | 359 kts | 27° |
| 2026-05-04 19:11 | 57.66871 | 12.64452 | 11463 ft | 365 kts | 27° |
| 2026-05-04 19:12 | 57.68994 | 12.67112 | 12045 ft | 369 kts | 28° |
| 2026-05-04 19:12 | 57.73286 | 12.72599 | 13214 ft | 378 kts | 28° |
| 2026-05-04 19:12 | 57.75468 | 12.75407 | 13775 ft | 383 kts | 28° |
| 2026-05-04 19:13 | 57.77667 | 12.78238 | 14353 ft | 384 kts | 28° |
| 2026-05-04 19:13 | 57.79879 | 12.81088 | 14920 ft | 387 kts | 28° |
| 2026-05-04 19:13 | 57.81966 | 12.83777 | 15446 ft | 389 kts | 28° |
| 2026-05-04 19:13 | 57.84074 | 12.86494 | 15953 ft | 391 kts | 27° |
| 2026-05-04 19:14 | 57.86189 | 12.89799 | 16522 ft | 400 kts | 40° |
| 2026-05-04 19:14 | 57.88137 | 12.93544 | 17029 ft | 403 kts | 40° |
| 2026-05-04 19:14 | 57.90092 | 12.97352 | 17587 ft | 406 kts | 40° |
| 2026-05-04 19:14 | 57.92027 | 13.01170 | 18118 ft | 409 kts | 40° |
| 2026-05-04 19:15 | 57.93989 | 13.05076 | 18564 ft | 412 kts | 41° |
| 2026-05-04 19:15 | 57.95956 | 13.09013 | 19012 ft | 416 kts | 41° |
| 2026-05-04 19:15 | 57.97943 | 13.13004 | 19473 ft | 419 kts | 41° |
| 2026-05-04 19:15 | 57.99945 | 13.17038 | 19921 ft | 423 kts | 41° |
| 2026-05-04 19:16 | 58.01962 | 13.21111 | 20373 ft | 427 kts | 41° |
| 2026-05-04 19:16 | 58.04000 | 13.25231 | 20815 ft | 430 kts | 41° |
| 2026-05-04 19:16 | 58.06048 | 13.29383 | 21284 ft | 434 kts | 41° |
| 2026-05-04 19:16 | 58.08113 | 13.33574 | 21742 ft | 437 kts | 41° |
| 2026-05-04 19:17 | 58.10170 | 13.37758 | 22193 ft | 441 kts | 41° |
| 2026-05-04 19:17 | 58.12283 | 13.42062 | 22640 ft | 444 kts | 41° |
| 2026-05-04 19:17 | 58.14390 | 13.46361 | 23105 ft | 448 kts | 41° |
| 2026-05-04 19:17 | 58.16520 | 13.50715 | 23546 ft | 452 kts | 42° |
| 2026-05-04 19:18 | 58.18564 | 13.54902 | 23974 ft | 453 kts | 42° |
| 2026-05-04 19:18 | 58.20701 | 13.59290 | 24372 ft | 456 kts | 42° |
| 2026-05-04 19:18 | 58.22863 | 13.63733 | 24704 ft | 459 kts | 42° |
| 2026-05-04 19:18 | 58.25024 | 13.68185 | 24812 ft | 461 kts | 42° |
| 2026-05-04 19:19 | 58.27224 | 13.72718 | 24821 ft | 472 kts | 43° |
| 2026-05-04 19:19 | 58.29447 | 13.77312 | 24848 ft | 473 kts | 42° |
| 2026-05-04 19:19 | 58.31683 | 13.81951 | 24818 ft | 476 kts | 43° |
| 2026-05-04 19:19 | 58.33847 | 13.86451 | 24819 ft | 475 kts | 42° |
| 2026-05-04 19:20 | 58.36079 | 13.91099 | 24817 ft | 475 kts | 43° |
| 2026-05-04 19:20 | 58.38297 | 13.95727 | 24818 ft | 469 kts | 43° |
| 2026-05-04 19:20 | 58.40465 | 14.00265 | 24804 ft | 459 kts | 42° |
| 2026-05-04 19:20 | 58.42616 | 14.04767 | 24804 ft | 460 kts | 42° |
| 2026-05-04 19:21 | 58.44757 | 14.09249 | 24803 ft | 462 kts | 42° |
| 2026-05-04 19:21 | 58.46920 | 14.13788 | 24802 ft | 461 kts | 43° |
| 2026-05-04 19:21 | 58.49073 | 14.18319 | 24801 ft | 461 kts | 43° |
| 2026-05-04 19:21 | 58.51232 | 14.22872 | 24800 ft | 462 kts | 43° |
| 2026-05-04 19:22 | 58.53389 | 14.27429 | 24836 ft | 463 kts | 42° |
| 2026-05-04 19:22 | 58.55557 | 14.32018 | 24794 ft | 466 kts | 43° |
| 2026-05-04 19:22 | 58.57728 | 14.36626 | 24814 ft | 465 kts | 43° |
| 2026-05-04 19:22 | 58.59894 | 14.41232 | 24815 ft | 465 kts | 43° |
| 2026-05-04 19:23 | 58.62061 | 14.45848 | 24796 ft | 465 kts | 43° |
| 2026-05-04 19:23 | 58.64226 | 14.50468 | 24789 ft | 465 kts | 43° |
| 2026-05-04 19:23 | 58.66388 | 14.55093 | 24811 ft | 465 kts | 43° |
| 2026-05-04 19:23 | 58.68549 | 14.59724 | 24790 ft | 465 kts | 43° |
| 2026-05-04 19:24 | 58.70696 | 14.64335 | 24786 ft | 462 kts | 43° |
| 2026-05-04 19:24 | 58.72816 | 14.68897 | 24788 ft | 461 kts | 43° |
| 2026-05-04 19:24 | 58.74935 | 14.73470 | 24786 ft | 459 kts | 43° |
| 2026-05-04 19:24 | 58.77082 | 14.78099 | 24779 ft | 468 kts | 43° |
| 2026-05-04 19:25 | 58.79241 | 14.82769 | 24774 ft | 467 kts | 43° |
| 2026-05-04 19:25 | 58.81398 | 14.87450 | 24771 ft | 466 kts | 43° |
| 2026-05-04 19:25 | 58.83537 | 14.92100 | 24769 ft | 466 kts | 43° |
| 2026-05-04 19:25 | 58.85693 | 14.96793 | 24757 ft | 467 kts | 43° |
| 2026-05-04 19:26 | 58.87843 | 15.01486 | 24758 ft | 467 kts | 43° |
| 2026-05-04 19:26 | 58.89996 | 15.06192 | 24758 ft | 467 kts | 43° |
| 2026-05-04 19:26 | 58.92142 | 15.10894 | 24758 ft | 467 kts | 43° |
| 2026-05-04 19:26 | 58.94265 | 15.15554 | 24752 ft | 467 kts | 43° |
| 2026-05-04 19:27 | 58.96435 | 15.20329 | 24753 ft | 467 kts | 43° |
| 2026-05-04 19:27 | 58.98550 | 15.24985 | 24751 ft | 467 kts | 44° |
| 2026-05-04 19:27 | 59.00523 | 15.30073 | 24728 ft | 476 kts | 51° |
| 2026-05-04 19:27 | 59.02378 | 15.35352 | 24495 ft | 472 kts | 51° |
| 2026-05-04 19:28 | 59.04223 | 15.40625 | 24251 ft | 472 kts | 51° |
| 2026-05-04 19:28 | 59.06044 | 15.45906 | 24015 ft | 471 kts | 52° |
| 2026-05-04 19:28 | 59.07848 | 15.51217 | 23765 ft | 469 kts | 52° |
| 2026-05-04 19:28 | 59.09631 | 15.56520 | 23521 ft | 467 kts | 52° |
| 2026-05-04 19:29 | 59.11374 | 15.61731 | 23010 ft | 465 kts | 52° |
| 2026-05-04 19:29 | 59.13113 | 15.66945 | 22179 ft | 462 kts | 52° |
| 2026-05-04 19:29 | 59.14850 | 15.72166 | 21237 ft | 456 kts | 52° |
| 2026-05-04 19:29 | 59.16557 | 15.77312 | 20336 ft | 449 kts | 52° |
| 2026-05-04 19:30 | 59.18241 | 15.82398 | 19468 ft | 442 kts | 52° |
| 2026-05-04 19:30 | 59.19889 | 15.87386 | 18626 ft | 435 kts | 52° |
| 2026-05-04 19:30 | 59.21512 | 15.92309 | 17818 ft | 429 kts | 51° |
| 2026-05-04 19:30 | 59.23117 | 15.97175 | 16879 ft | 423 kts | 52° |
| 2026-05-04 19:31 | 59.24694 | 16.01955 | 15951 ft | 416 kts | 52° |
| 2026-05-04 19:31 | 59.26247 | 16.06678 | 15066 ft | 409 kts | 53° |
| 2026-05-04 19:31 | 59.27772 | 16.11323 | 14188 ft | 402 kts | 53° |
| 2026-05-04 19:31 | 59.29246 | 16.15826 | 13327 ft | 395 kts | 54° |
| 2026-05-04 19:32 | 59.30730 | 16.20367 | 12370 ft | 388 kts | 54° |
| 2026-05-04 19:32 | 59.32152 | 16.24734 | 11476 ft | 380 kts | 55° |
| 2026-05-04 19:32 | 59.33540 | 16.29005 | 10950 ft | 363 kts | 55° |
| 2026-05-04 19:32 | 59.34886 | 16.33161 | 10780 ft | 365 kts | 55° |
| 2026-05-04 19:33 | 59.36242 | 16.37345 | 10582 ft | 362 kts | 55° |
| 2026-05-04 19:33 | 59.37584 | 16.41496 | 10362 ft | 359 kts | 55° |
| 2026-05-04 19:33 | 59.38917 | 16.45627 | 9943 ft | 356 kts | 55° |
| 2026-05-04 19:33 | 59.40228 | 16.49697 | 9435 ft | 351 kts | 55° |
| 2026-05-04 19:34 | 59.41522 | 16.53726 | 8922 ft | 347 kts | 55° |
| 2026-05-04 19:34 | 59.42806 | 16.57732 | 8392 ft | 346 kts | 55° |
| 2026-05-04 19:34 | 59.44066 | 16.61665 | 7872 ft | 343 kts | 55° |
| 2026-05-04 19:34 | 59.45328 | 16.65611 | 7360 ft | 340 kts | 55° |
| 2026-05-04 19:35 | 59.46582 | 16.69538 | 6902 ft | 337 kts | 55° |
| 2026-05-04 19:35 | 59.47825 | 16.73435 | 6757 ft | 337 kts | 55° |
| 2026-05-04 19:35 | 59.49073 | 16.77355 | 6718 ft | 338 kts | 55° |
| 2026-05-04 19:35 | 59.50320 | 16.81276 | 6672 ft | 337 kts | 55° |
| 2026-05-04 19:36 | 59.51563 | 16.85195 | 6543 ft | 335 kts | 55° |
| 2026-05-04 19:36 | 59.52761 | 16.88989 | 6404 ft | 319 kts | 55° |
| 2026-05-04 19:36 | 59.53898 | 16.92600 | 6202 ft | 299 kts | 55° |
| 2026-05-04 19:36 | 59.54966 | 16.95998 | 5692 ft | 287 kts | 55° |
| 2026-05-04 19:37 | 59.56005 | 16.99282 | 5314 ft | 290 kts | 55° |
| 2026-05-04 19:37 | 59.57072 | 17.02655 | 5152 ft | 290 kts | 55° |
| 2026-05-04 19:37 | 59.58149 | 17.06073 | 5021 ft | 289 kts | 55° |
| 2026-05-04 19:37 | 59.59189 | 17.09385 | 4904 ft | 288 kts | 55° |
| 2026-05-04 19:38 | 59.60244 | 17.12746 | 4779 ft | 287 kts | 55° |
| 2026-05-04 19:38 | 59.61267 | 17.16022 | 4679 ft | 272 kts | 55° |
| 2026-05-04 19:38 | 59.62225 | 17.19108 | 4442 ft | 256 kts | 55° |
| 2026-05-04 19:38 | 59.63142 | 17.22056 | 4025 ft | 250 kts | 54° |
| 2026-05-04 19:39 | 59.64082 | 17.25059 | 3882 ft | 263 kts | 54° |
| 2026-05-04 19:39 | 59.65045 | 17.28141 | 3746 ft | 264 kts | 55° |
| 2026-05-04 19:39 | 59.66006 | 17.31229 | 3612 ft | 263 kts | 55° |
| 2026-05-04 19:39 | 59.66966 | 17.34324 | 3483 ft | 263 kts | 55° |
| 2026-05-04 19:40 | 59.67919 | 17.37399 | 3356 ft | 263 kts | 55° |
| 2026-05-04 19:40 | 59.68862 | 17.40447 | 3236 ft | 264 kts | 55° |
| 2026-05-04 19:40 | 59.69818 | 17.43541 | 3111 ft | 263 kts | 55° |
| 2026-05-04 19:40 | 59.70773 | 17.46629 | 2971 ft | 263 kts | 55° |
| 2026-05-04 19:41 | 59.71724 | 17.49720 | 2840 ft | 262 kts | 55° |
| 2026-05-04 19:41 | 59.72671 | 17.52793 | 2713 ft | 262 kts | 55° |
| 2026-05-04 19:41 | 59.73624 | 17.55887 | 2571 ft | 263 kts | 55° |
| 2026-05-04 19:41 | 59.74524 | 17.59053 | 2504 ft | 264 kts | 63° |
| 2026-05-04 19:42 | 59.75086 | 17.62518 | 2495 ft | 266 kts | 76° |
| 2026-05-04 19:42 | 59.75517 | 17.66090 | 2489 ft | 266 kts | 75° |
| 2026-05-04 19:42 | 59.75971 | 17.69654 | 2510 ft | 265 kts | 74° |
| 2026-05-04 19:42 | 59.76431 | 17.73174 | 2489 ft | 264 kts | 73° |
| 2026-05-04 19:43 | 59.76895 | 17.76700 | 2495 ft | 264 kts | 73° |
| 2026-05-04 19:43 | 59.77356 | 17.80204 | 2500 ft | 266 kts | 74° |
| 2026-05-04 19:43 | 59.77819 | 17.83720 | 2488 ft | 263 kts | 74° |
| 2026-05-04 19:43 | 59.78315 | 17.87223 | 2474 ft | 264 kts | 66° |
| 2026-05-04 19:44 | 59.79333 | 17.90180 | 2481 ft | 258 kts | 37° |
| 2026-05-04 19:44 | 59.80818 | 17.91862 | 2500 ft | 232 kts | 11° |
| 2026-05-04 19:44 | 59.82279 | 17.92877 | 2502 ft | 213 kts | 13° |
| 2026-05-04 19:44 | 59.83683 | 17.93816 | 2490 ft | 213 kts | 12° |
| 2026-05-04 19:45 | 59.85080 | 17.94756 | 2490 ft | 212 kts | 12° |
| 2026-05-04 19:45 | 59.86469 | 17.95697 | 2490 ft | 211 kts | 13° |
| 2026-05-04 19:45 | 59.87801 | 17.96975 | 2481 ft | 218 kts | 33° |
| 2026-05-04 19:45 | 59.88718 | 17.99412 | 2488 ft | 226 kts | 66° |
| 2026-05-04 19:46 | 59.88911 | 18.02505 | 2485 ft | 226 kts | 99° |
| 2026-05-04 19:46 | 59.88306 | 18.05309 | 2483 ft | 219 kts | 133° |
| 2026-05-04 19:46 | 59.87144 | 18.06950 | 2483 ft | 203 kts | 168° |
| 2026-05-04 19:46 | 59.85779 | 18.07018 | 2489 ft | 194 kts | 204° |
| 2026-05-04 19:47 | 59.84695 | 18.05639 | 2496 ft | 183 kts | 228° |
| 2026-05-04 19:47 | 59.83760 | 18.03939 | 2495 ft | 181 kts | 228° |
| 2026-05-04 19:47 | 59.82843 | 18.02237 | 2489 ft | 180 kts | 228° |
| 2026-05-04 19:47 | 59.81924 | 18.00537 | 2488 ft | 180 kts | 228° |
| 2026-05-04 19:48 | 59.81002 | 17.98857 | 2469 ft | 180 kts | 227° |
| 2026-05-04 19:48 | 59.79905 | 17.97678 | 2504 ft | 188 kts | 200° |
| 2026-05-04 19:48 | 59.78551 | 17.97895 | 2485 ft | 206 kts | 167° |
| 2026-05-04 19:48 | 59.77265 | 17.99235 | 2475 ft | 210 kts | 157° |
| 2026-05-04 19:49 | 59.75929 | 18.00180 | 2394 ft | 199 kts | 186° |
| 2026-05-04 19:49 | 59.74651 | 17.99754 | 2176 ft | 184 kts | 204° |
| 2026-05-04 19:49 | 59.73429 | 17.99091 | 1908 ft | 181 kts | 202° |
| 2026-05-04 19:49 | 59.72238 | 17.98564 | 1673 ft | 175 kts | 200° |
| 2026-05-04 19:50 | 59.71078 | 17.98147 | 1437 ft | 163 kts | 199° |
| 2026-05-04 19:50 | 59.70021 | 17.97746 | 1227 ft | 152 kts | 199° |
| 2026-05-04 19:50 | 59.68967 | 17.97368 | 1006 ft | 149 kts | 197° |
| 2026-05-04 19:50 | 59.67999 | 17.97017 | 806 ft | 136 kts | 194° |
| 2026-05-04 19:51 | 59.67037 | 17.96661 | 619 ft | 143 kts | 194° |
| 2026-05-04 19:51 | 59.66096 | 17.96350 | 417 ft | 139 kts | 192° |
| 2026-05-04 19:51 | 59.65140 | 17.95994 | 220 ft | 135 kts | 194° |
| 2026-05-04 19:51 | 59.64358 | 17.95699 | 151 ft | 63 kts | 189° |
| 2026-05-04 19:52 | 59.64028 | 17.95573 | 150 ft | 42 kts | 189° |
| 2026-05-04 19:52 | 59.63824 | 17.95503 | 151 ft | 0 kts | 190° |
| 2026-05-04 19:52 | 59.63758 | 17.95480 | 151 ft | 27 kts | 190° |
| 2026-05-04 19:52 | 59.63534 | 17.95387 | 150 ft | 36 kts | 198° |
| 2026-05-04 19:53 | 59.63330 | 17.95191 | 145 ft | 8 kts | 212° |
| 2026-05-04 19:53 | 59.63304 | 17.95153 | 145 ft | 0 kts | 216° |
| 2026-05-04 19:53 | 59.63247 | 17.95026 | 144 ft | 28 kts | 237° |
| 2026-05-04 19:53 | 59.63244 | 17.94945 | 144 ft | 11 kts | 283° |
| 2026-05-04 19:54 | 59.63287 | 17.94908 | 144 ft | 13 kts | 350° |
| 2026-05-04 19:54 | 59.63392 | 17.94943 | 144 ft | 17 kts | 11° |
| 2026-05-04 19:54 | 59.63513 | 17.94990 | 144 ft | 19 kts | 11° |
| 2026-05-04 19:54 | 59.63644 | 17.95040 | 144 ft | 20 kts | 11° |
| 2026-05-04 19:55 | 59.63782 | 17.95088 | 144 ft | 21 kts | 7° |
| 2026-05-04 19:55 | 59.63926 | 17.95136 | 144 ft | 21 kts | 10° |
| 2026-05-04 19:55 | 59.64075 | 17.95189 | 144 ft | 22 kts | 10° |
| 2026-05-04 19:55 | 59.64229 | 17.95244 | 144 ft | 23 kts | 10° |
| 2026-05-04 19:56 | 59.64390 | 17.95302 | 144 ft | 24 kts | 10° |
| 2026-05-04 19:56 | 59.64554 | 17.95357 | 144 ft | 24 kts | 9° |
| 2026-05-04 19:56 | 59.64724 | 17.95418 | 144 ft | 25 kts | 13° |
| 2026-05-04 19:56 | 59.64894 | 17.95487 | 144 ft | 24 kts | 7° |
| 2026-05-04 19:57 | 59.65036 | 17.95509 | 144 ft | 17 kts | 350° |
| 2026-05-04 19:57 | 59.65117 | 17.95474 | 144 ft | 18 kts | 347° |
| 2026-05-04 19:57 | 59.65243 | 17.95407 | 143 ft | 19 kts | 344° |
| 2026-05-04 19:57 | 59.65376 | 17.95335 | 143 ft | 20 kts | 345° |
| 2026-05-04 19:58 | 59.65559 | 17.95240 | 144 ft | 21 kts | 346° |
| 2026-05-04 19:58 | 59.65698 | 17.95169 | 144 ft | 19 kts | 343° |
| 2026-05-04 19:58 | 59.65742 | 17.94970 | 144 ft | 17 kts | 259° |
| 2026-05-04 19:58 | 59.65719 | 17.94738 | 144 ft | 17 kts | 258° |
| 2026-05-04 19:59 | 59.65690 | 17.94503 | 144 ft | 18 kts | 255° |
| 2026-05-04 19:59 | 59.65653 | 17.94269 | 143 ft | 18 kts | 256° |
| 2026-05-04 19:59 | 59.65633 | 17.94110 | 143 ft | 18 kts | 256° |
| 2026-05-04 19:59 | 59.65594 | 17.93795 | 143 ft | 23 kts | 256° |
| 2026-05-04 20:00 | 59.65538 | 17.93405 | 143 ft | 14 kts | 239° |
| 2026-05-04 20:00 | 59.65495 | 17.93353 | 143 ft | 9 kts | 198° |
| 2026-05-04 20:00 | 59.65419 | 17.93355 | 143 ft | 9 kts | 168° |
| 2026-05-04 20:00 | 59.65376 | 17.93377 | 143 ft | 10 kts | 165° |
| 2026-05-04 20:01 | 59.65315 | 17.93408 | 143 ft | 1 kts | 165° |
| 2026-05-04 20:01 | 59.65289 | 17.93456 | 143 ft | 11 kts | 127° |
| 2026-05-04 20:01 | 59.65294 | 17.93566 | 143 ft | 8 kts | 78° |
| 2026-05-04 20:01 | 59.65294 | 17.93569 | 143 ft | 0 kts | 78° |